sensor_id;sensor_type;location;lat;lon;timestamp;P1;durP1;ratioP1;P2;durP2;ratioP2
77522;SDS011;66637;-29.628;-49.938;2023-05-16T00:00:29;3.63;;;1.75;;
77522;SDS011;66637;-29.628;-49.938;2023-05-16T00:03:04;6.40;;;2.10;;
77522;SDS011;66637;-29.628;-49.938;2023-05-16T00:05:35;3.35;;;1.90;;
77522;SDS011;66637;-29.628;-49.938;2023-05-16T00:08:07;4.32;;;1.92;;
77522;SDS011;66637;-29.628;-49.938;2023-05-16T00:10:42;4.13;;;1.98;;
77522;SDS011;66637;-29.628;-49.938;2023-05-16T00:13:14;4.03;;;1.95;;
77522;SDS011;66637;-29.628;-49.938;2023-05-16T00:15:51;4.70;;;1.60;;
77522;SDS011;66637;-29.628;-49.938;2023-05-16T00:18:25;4.93;;;1.90;;
77522;SDS011;66637;-29.628;-49.938;2023-05-16T00:21:02;3.88;;;1.90;;
77522;SDS011;66637;-29.628;-49.938;2023-05-16T00:23:37;6.50;;;1.80;;
77522;SDS011;66637;-29.628;-49.938;2023-05-16T00:26:08;6.32;;;1.85;;
77522;SDS011;66637;-29.628;-49.938;2023-05-16T00:28:40;5.78;;;1.80;;
77522;SDS011;66637;-29.628;-49.938;2023-05-16T00:31:13;5.13;;;1.70;;
77522;SDS011;66637;-29.628;-49.938;2023-05-16T00:33:45;3.65;;;1.80;;
77522;SDS011;66637;-29.628;-49.938;2023-05-16T00:36:17;2.60;;;1.77;;
77522;SDS011;66637;-29.628;-49.938;2023-05-16T00:38:51;3.65;;;1.42;;
77522;SDS011;66637;-29.628;-49.938;2023-05-16T00:41:26;4.22;;;1.55;;
77522;SDS011;66637;-29.628;-49.938;2023-05-16T00:43:58;6.50;;;1.70;;
77522;SDS011;66637;-29.628;-49.938;2023-05-16T00:46:33;4.57;;;1.80;;
77522;SDS011;66637;-29.628;-49.938;2023-05-16T00:49:05;4.00;;;1.60;;
77522;SDS011;66637;-29.628;-49.938;2023-05-16T00:51:37;4.10;;;1.52;;
77522;SDS011;66637;-29.628;-49.938;2023-05-16T00:54:08;3.75;;;1.73;;
77522;SDS011;66637;-29.628;-49.938;2023-05-16T00:56:44;1.88;;;1.40;;
77522;SDS011;66637;-29.628;-49.938;2023-05-16T00:59:17;3.90;;;1.60;;
77522;SDS011;66637;-29.628;-49.938;2023-05-16T01:01:50;3.03;;;1.88;;
77522;SDS011;66637;-29.628;-49.938;2023-05-16T01:04:21;3.28;;;2.10;;
77522;SDS011;66637;-29.628;-49.938;2023-05-16T01:06:54;4.53;;;1.63;;
77522;SDS011;66637;-29.628;-49.938;2023-05-16T01:09:26;5.45;;;1.52;;
77522;SDS011;66637;-29.628;-49.938;2023-05-16T01:12:01;3.05;;;1.50;;
77522;SDS011;66637;-29.628;-49.938;2023-05-16T01:25:57;2.72;;;1.52;;
77522;SDS011;66637;-29.628;-49.938;2023-05-16T01:28:43;14.52;;;3.08;;
77522;SDS011;66637;-29.628;-49.938;2023-05-16T01:31:15;5.97;;;1.90;;
77522;SDS011;66637;-29.628;-49.938;2023-05-16T01:33:46;4.72;;;2.03;;
77522;SDS011;66637;-29.628;-49.938;2023-05-16T01:36:40;5.63;;;2.13;;
77522;SDS011;66637;-29.628;-49.938;2023-05-16T01:39:56;5.13;;;1.92;;
77522;SDS011;66637;-29.628;-49.938;2023-05-16T01:42:14;4.00;;;1.83;;
77522;SDS011;66637;-29.628;-49.938;2023-05-16T01:47:25;3.38;;;1.80;;
77522;SDS011;66637;-29.628;-49.938;2023-05-16T01:56:06;3.95;;;2.00;;
77522;SDS011;66637;-29.628;-49.938;2023-05-16T01:58:14;3.28;;;1.65;;
77522;SDS011;66637;-29.628;-49.938;2023-05-16T02:00:46;5.40;;;1.98;;
77522;SDS011;66637;-29.628;-49.938;2023-05-16T02:03:16;5.03;;;2.10;;
77522;SDS011;66637;-29.628;-49.938;2023-05-16T02:05:47;4.10;;;2.22;;
77522;SDS011;66637;-29.628;-49.938;2023-05-16T02:08:19;4.88;;;2.10;;
77522;SDS011;66637;-29.628;-49.938;2023-05-16T02:10:50;6.05;;;2.25;;
77522;SDS011;66637;-29.628;-49.938;2023-05-16T02:13:21;5.32;;;1.95;;
77522;SDS011;66637;-29.628;-49.938;2023-05-16T02:15:52;5.70;;;2.28;;
77522;SDS011;66637;-29.628;-49.938;2023-05-16T02:18:27;3.58;;;2.10;;
77522;SDS011;66637;-29.628;-49.938;2023-05-16T02:20:58;3.30;;;1.90;;
77522;SDS011;66637;-29.628;-49.938;2023-05-16T02:23:28;5.90;;;2.25;;
77522;SDS011;66637;-29.628;-49.938;2023-05-16T02:26:00;4.85;;;2.50;;
77522;SDS011;66637;-29.628;-49.938;2023-05-16T02:28:30;5.18;;;2.65;;
77522;SDS011;66637;-29.628;-49.938;2023-05-16T02:31:00;7.05;;;2.40;;
77522;SDS011;66637;-29.628;-49.938;2023-05-16T02:33:30;4.97;;;2.45;;
77522;SDS011;66637;-29.628;-49.938;2023-05-16T02:36:01;6.43;;;2.72;;
77522;SDS011;66637;-29.628;-49.938;2023-05-16T02:38:32;5.60;;;2.60;;
77522;SDS011;66637;-29.628;-49.938;2023-05-16T02:41:02;7.38;;;2.42;;
77522;SDS011;66637;-29.628;-49.938;2023-05-16T02:43:33;6.60;;;2.50;;
77522;SDS011;66637;-29.628;-49.938;2023-05-16T02:46:04;4.28;;;2.22;;
77522;SDS011;66637;-29.628;-49.938;2023-05-16T02:48:49;8.13;;;2.70;;
77522;SDS011;66637;-29.628;-49.938;2023-05-16T02:51:20;8.68;;;2.45;;
77522;SDS011;66637;-29.628;-49.938;2023-05-16T02:53:51;6.40;;;2.35;;
77522;SDS011;66637;-29.628;-49.938;2023-05-16T02:56:22;4.97;;;2.05;;
77522;SDS011;66637;-29.628;-49.938;2023-05-16T02:58:54;7.38;;;2.58;;
77522;SDS011;66637;-29.628;-49.938;2023-05-16T03:01:24;5.05;;;2.20;;
77522;SDS011;66637;-29.628;-49.938;2023-05-16T03:03:57;4.32;;;2.40;;
77522;SDS011;66637;-29.628;-49.938;2023-05-16T03:06:30;6.40;;;2.55;;
77522;SDS011;66637;-29.628;-49.938;2023-05-16T03:09:00;5.90;;;2.10;;
77522;SDS011;66637;-29.628;-49.938;2023-05-16T03:11:30;7.93;;;2.55;;
77522;SDS011;66637;-29.628;-49.938;2023-05-16T03:14:03;5.10;;;2.40;;
77522;SDS011;66637;-29.628;-49.938;2023-05-16T03:16:33;6.07;;;2.60;;
77522;SDS011;66637;-29.628;-49.938;2023-05-16T03:19:07;5.32;;;2.30;;
77522;SDS011;66637;-29.628;-49.938;2023-05-16T03:21:37;7.22;;;2.20;;
77522;SDS011;66637;-29.628;-49.938;2023-05-16T03:24:08;8.77;;;2.55;;
77522;SDS011;66637;-29.628;-49.938;2023-05-16T03:26:42;8.32;;;2.55;;
77522;SDS011;66637;-29.628;-49.938;2023-05-16T03:29:13;6.05;;;2.17;;
77522;SDS011;66637;-29.628;-49.938;2023-05-16T03:31:44;4.43;;;2.45;;
77522;SDS011;66637;-29.628;-49.938;2023-05-16T03:34:14;3.95;;;2.42;;
77522;SDS011;66637;-29.628;-49.938;2023-05-16T03:36:47;4.50;;;2.05;;
77522;SDS011;66637;-29.628;-49.938;2023-05-16T03:39:18;5.22;;;2.22;;
77522;SDS011;66637;-29.628;-49.938;2023-05-16T03:41:49;4.00;;;2.35;;
77522;SDS011;66637;-29.628;-49.938;2023-05-16T03:44:20;5.18;;;2.25;;
77522;SDS011;66637;-29.628;-49.938;2023-05-16T03:46:50;4.68;;;2.53;;
77522;SDS011;66637;-29.628;-49.938;2023-05-16T03:49:24;7.85;;;2.50;;
77522;SDS011;66637;-29.628;-49.938;2023-05-16T03:51:56;5.38;;;2.00;;
77522;SDS011;66637;-29.628;-49.938;2023-05-16T03:54:26;5.43;;;2.03;;
77522;SDS011;66637;-29.628;-49.938;2023-05-16T03:56:57;5.03;;;2.50;;
77522;SDS011;66637;-29.628;-49.938;2023-05-16T03:59:27;4.93;;;2.20;;
77522;SDS011;66637;-29.628;-49.938;2023-05-16T04:01:57;5.00;;;2.33;;
77522;SDS011;66637;-29.628;-49.938;2023-05-16T04:04:28;4.60;;;2.05;;
77522;SDS011;66637;-29.628;-49.938;2023-05-16T04:06:59;3.80;;;2.00;;
77522;SDS011;66637;-29.628;-49.938;2023-05-16T04:09:33;4.63;;;2.53;;
77522;SDS011;66637;-29.628;-49.938;2023-05-16T04:12:03;4.85;;;2.40;;
77522;SDS011;66637;-29.628;-49.938;2023-05-16T04:14:34;4.68;;;2.28;;
77522;SDS011;66637;-29.628;-49.938;2023-05-16T04:17:04;4.30;;;2.03;;
77522;SDS011;66637;-29.628;-49.938;2023-05-16T04:19:35;3.28;;;2.15;;
77522;SDS011;66637;-29.628;-49.938;2023-05-16T04:22:05;4.65;;;1.92;;
77522;SDS011;66637;-29.628;-49.938;2023-05-16T04:24:37;5.10;;;1.85;;
77522;SDS011;66637;-29.628;-49.938;2023-05-16T04:27:07;3.63;;;1.88;;
77522;SDS011;66637;-29.628;-49.938;2023-05-16T04:29:37;3.35;;;1.70;;
77522;SDS011;66637;-29.628;-49.938;2023-05-16T04:32:09;3.30;;;1.67;;
77522;SDS011;66637;-29.628;-49.938;2023-05-16T04:34:40;3.17;;;1.77;;
77522;SDS011;66637;-29.628;-49.938;2023-05-16T04:37:12;5.03;;;2.03;;
77522;SDS011;66637;-29.628;-49.938;2023-05-16T04:39:43;4.88;;;1.88;;
77522;SDS011;66637;-29.628;-49.938;2023-05-16T04:42:14;3.80;;;2.15;;
77522;SDS011;66637;-29.628;-49.938;2023-05-16T04:44:45;3.33;;;1.63;;
77522;SDS011;66637;-29.628;-49.938;2023-05-16T04:47:15;2.92;;;1.60;;
77522;SDS011;66637;-29.628;-49.938;2023-05-16T04:49:46;4.57;;;1.92;;
77522;SDS011;66637;-29.628;-49.938;2023-05-16T04:52:16;4.35;;;1.70;;
77522;SDS011;66637;-29.628;-49.938;2023-05-16T04:54:49;4.60;;;1.60;;
77522;SDS011;66637;-29.628;-49.938;2023-05-16T04:57:20;4.18;;;1.63;;
77522;SDS011;66637;-29.628;-49.938;2023-05-16T04:59:51;3.85;;;2.17;;
77522;SDS011;66637;-29.628;-49.938;2023-05-16T05:02:23;2.88;;;2.10;;
77522;SDS011;66637;-29.628;-49.938;2023-05-16T05:04:53;2.55;;;1.73;;
77522;SDS011;66637;-29.628;-49.938;2023-05-16T05:07:24;2.72;;;1.80;;
77522;SDS011;66637;-29.628;-49.938;2023-05-16T05:09:57;3.45;;;2.10;;
77522;SDS011;66637;-29.628;-49.938;2023-05-16T05:12:27;3.28;;;1.90;;
77522;SDS011;66637;-29.628;-49.938;2023-05-16T05:14:58;5.85;;;2.05;;
77522;SDS011;66637;-29.628;-49.938;2023-05-16T05:17:29;5.28;;;1.77;;
77522;SDS011;66637;-29.628;-49.938;2023-05-16T05:20:00;3.55;;;1.85;;
77522;SDS011;66637;-29.628;-49.938;2023-05-16T05:22:35;3.67;;;2.13;;
77522;SDS011;66637;-29.628;-49.938;2023-05-16T05:25:07;3.03;;;1.95;;
77522;SDS011;66637;-29.628;-49.938;2023-05-16T05:27:39;5.53;;;1.90;;
77522;SDS011;66637;-29.628;-49.938;2023-05-16T05:30:09;2.35;;;1.65;;
77522;SDS011;66637;-29.628;-49.938;2023-05-16T05:32:40;3.42;;;1.92;;
77522;SDS011;66637;-29.628;-49.938;2023-05-16T05:35:10;4.70;;;2.00;;
77522;SDS011;66637;-29.628;-49.938;2023-05-16T05:37:41;4.60;;;1.80;;
77522;SDS011;66637;-29.628;-49.938;2023-05-16T05:40:12;8.77;;;2.13;;
77522;SDS011;66637;-29.628;-49.938;2023-05-16T05:42:44;5.53;;;1.88;;
77522;SDS011;66637;-29.628;-49.938;2023-05-16T05:45:15;4.55;;;2.10;;
77522;SDS011;66637;-29.628;-49.938;2023-05-16T05:47:46;4.35;;;1.90;;
77522;SDS011;66637;-29.628;-49.938;2023-05-16T05:50:17;2.78;;;2.10;;
77522;SDS011;66637;-29.628;-49.938;2023-05-16T05:52:47;4.10;;;1.90;;
77522;SDS011;66637;-29.628;-49.938;2023-05-16T05:55:18;3.33;;;1.98;;
77522;SDS011;66637;-29.628;-49.938;2023-05-16T05:57:48;4.45;;;1.95;;
77522;SDS011;66637;-29.628;-49.938;2023-05-16T06:00:19;3.42;;;1.80;;
77522;SDS011;66637;-29.628;-49.938;2023-05-16T06:02:50;3.53;;;1.67;;
77522;SDS011;66637;-29.628;-49.938;2023-05-16T06:05:21;3.47;;;1.77;;
77522;SDS011;66637;-29.628;-49.938;2023-05-16T06:07:52;5.13;;;2.17;;
77522;SDS011;66637;-29.628;-49.938;2023-05-16T06:10:22;4.35;;;2.00;;
77522;SDS011;66637;-29.628;-49.938;2023-05-16T06:12:52;3.80;;;1.70;;
77522;SDS011;66637;-29.628;-49.938;2023-05-16T06:15:23;5.20;;;2.15;;
77522;SDS011;66637;-29.628;-49.938;2023-05-16T06:17:55;3.33;;;1.80;;
77522;SDS011;66637;-29.628;-49.938;2023-05-16T06:20:26;3.00;;;1.95;;
77522;SDS011;66637;-29.628;-49.938;2023-05-16T06:22:57;3.20;;;2.22;;
77522;SDS011;66637;-29.628;-49.938;2023-05-16T06:25:27;3.38;;;2.13;;
77522;SDS011;66637;-29.628;-49.938;2023-05-16T06:27:58;7.90;;;1.83;;
77522;SDS011;66637;-29.628;-49.938;2023-05-16T08:06:04;5.22;;;2.50;;
77522;SDS011;66637;-29.628;-49.938;2023-05-16T08:08:47;4.88;;;1.98;;
77522;SDS011;66637;-29.628;-49.938;2023-05-16T08:11:31;4.40;;;2.10;;
77522;SDS011;66637;-29.628;-49.938;2023-05-16T08:14:02;6.20;;;2.00;;
77522;SDS011;66637;-29.628;-49.938;2023-05-16T08:16:32;3.78;;;2.05;;
77522;SDS011;66637;-29.628;-49.938;2023-05-16T08:19:04;4.75;;;2.22;;
77522;SDS011;66637;-29.628;-49.938;2023-05-16T08:21:36;5.90;;;2.35;;
77522;SDS011;66637;-29.628;-49.938;2023-05-16T08:24:06;4.88;;;2.45;;
77522;SDS011;66637;-29.628;-49.938;2023-05-16T08:26:45;3.72;;;2.45;;
77522;SDS011;66637;-29.628;-49.938;2023-05-16T08:29:15;3.65;;;2.17;;
77522;SDS011;66637;-29.628;-49.938;2023-05-16T08:31:47;4.75;;;2.10;;
77522;SDS011;66637;-29.628;-49.938;2023-05-16T08:34:20;3.78;;;1.92;;
77522;SDS011;66637;-29.628;-49.938;2023-05-16T08:36:54;3.58;;;2.15;;
77522;SDS011;66637;-29.628;-49.938;2023-05-16T08:39:24;6.43;;;2.17;;
77522;SDS011;66637;-29.628;-49.938;2023-05-16T08:41:54;5.47;;;1.95;;
77522;SDS011;66637;-29.628;-49.938;2023-05-16T08:44:24;3.67;;;2.28;;
77522;SDS011;66637;-29.628;-49.938;2023-05-16T08:46:56;3.65;;;1.90;;
77522;SDS011;66637;-29.628;-49.938;2023-05-16T08:49:31;4.57;;;2.33;;
77522;SDS011;66637;-29.628;-49.938;2023-05-16T08:52:06;3.65;;;2.30;;
77522;SDS011;66637;-29.628;-49.938;2023-05-16T08:54:39;3.90;;;2.35;;
77522;SDS011;66637;-29.628;-49.938;2023-05-16T08:57:10;3.03;;;2.28;;
77522;SDS011;66637;-29.628;-49.938;2023-05-16T08:59:42;4.90;;;2.05;;
77522;SDS011;66637;-29.628;-49.938;2023-05-16T09:02:13;4.82;;;2.22;;
77522;SDS011;66637;-29.628;-49.938;2023-05-16T09:04:44;5.68;;;2.15;;
77522;SDS011;66637;-29.628;-49.938;2023-05-16T09:07:16;6.22;;;2.22;;
77522;SDS011;66637;-29.628;-49.938;2023-05-16T09:09:47;4.95;;;2.00;;
77522;SDS011;66637;-29.628;-49.938;2023-05-16T09:12:19;5.13;;;1.90;;
77522;SDS011;66637;-29.628;-49.938;2023-05-16T09:14:50;3.65;;;2.10;;
77522;SDS011;66637;-29.628;-49.938;2023-05-16T09:17:22;6.45;;;2.65;;
77522;SDS011;66637;-29.628;-49.938;2023-05-16T09:20:12;5.65;;;2.30;;
77522;SDS011;66637;-29.628;-49.938;2023-05-16T09:22:54;3.33;;;2.15;;
77522;SDS011;66637;-29.628;-49.938;2023-05-16T09:25:27;8.13;;;2.10;;
77522;SDS011;66637;-29.628;-49.938;2023-05-16T09:28:01;3.88;;;2.08;;
77522;SDS011;66637;-29.628;-49.938;2023-05-16T09:30:32;3.53;;;2.00;;
77522;SDS011;66637;-29.628;-49.938;2023-05-16T09:33:03;4.25;;;2.10;;
77522;SDS011;66637;-29.628;-49.938;2023-05-16T09:35:37;4.65;;;1.95;;
77522;SDS011;66637;-29.628;-49.938;2023-05-16T09:38:13;8.30;;;2.25;;
77522;SDS011;66637;-29.628;-49.938;2023-05-16T09:40:44;3.55;;;2.13;;
77522;SDS011;66637;-29.628;-49.938;2023-05-16T09:43:16;3.88;;;2.05;;
77522;SDS011;66637;-29.628;-49.938;2023-05-16T09:45:51;3.88;;;1.90;;
77522;SDS011;66637;-29.628;-49.938;2023-05-16T09:48:23;4.32;;;2.20;;
77522;SDS011;66637;-29.628;-49.938;2023-05-16T09:50:57;4.93;;;2.03;;
77522;SDS011;66637;-29.628;-49.938;2023-05-16T09:53:32;3.95;;;2.13;;
77522;SDS011;66637;-29.628;-49.938;2023-05-16T09:56:05;3.08;;;1.80;;
77522;SDS011;66637;-29.628;-49.938;2023-05-16T09:58:37;5.45;;;1.83;;
77522;SDS011;66637;-29.628;-49.938;2023-05-16T10:01:09;5.00;;;2.10;;
77522;SDS011;66637;-29.628;-49.938;2023-05-16T10:03:42;6.30;;;2.35;;
77522;SDS011;66637;-29.628;-49.938;2023-05-16T10:06:13;4.03;;;2.03;;
77522;SDS011;66637;-29.628;-49.938;2023-05-16T10:08:46;3.78;;;2.28;;
77522;SDS011;66637;-29.628;-49.938;2023-05-16T10:11:18;3.97;;;2.50;;
77522;SDS011;66637;-29.628;-49.938;2023-05-16T10:13:48;4.40;;;2.10;;
77522;SDS011;66637;-29.628;-49.938;2023-05-16T10:16:21;5.72;;;2.10;;
77522;SDS011;66637;-29.628;-49.938;2023-05-16T10:18:54;6.22;;;2.60;;
77522;SDS011;66637;-29.628;-49.938;2023-05-16T10:21:26;3.30;;;2.10;;
77522;SDS011;66637;-29.628;-49.938;2023-05-16T10:24:01;4.38;;;2.00;;
77522;SDS011;66637;-29.628;-49.938;2023-05-16T10:26:35;2.85;;;1.90;;
77522;SDS011;66637;-29.628;-49.938;2023-05-16T10:29:07;6.32;;;2.47;;
77522;SDS011;66637;-29.628;-49.938;2023-05-16T10:31:38;6.53;;;2.17;;
77522;SDS011;66637;-29.628;-49.938;2023-05-16T10:34:09;5.22;;;1.63;;
77522;SDS011;66637;-29.628;-49.938;2023-05-16T10:36:39;5.15;;;1.77;;
77522;SDS011;66637;-29.628;-49.938;2023-05-16T10:39:11;2.83;;;1.70;;
77522;SDS011;66637;-29.628;-49.938;2023-05-16T10:41:43;2.47;;;1.70;;
77522;SDS011;66637;-29.628;-49.938;2023-05-16T10:44:15;3.03;;;1.70;;
77522;SDS011;66637;-29.628;-49.938;2023-05-16T10:46:46;5.45;;;1.80;;
77522;SDS011;66637;-29.628;-49.938;2023-05-16T10:49:18;3.70;;;2.00;;
77522;SDS011;66637;-29.628;-49.938;2023-05-16T10:52:02;3.85;;;1.83;;
77522;SDS011;66637;-29.628;-49.938;2023-05-16T10:54:35;3.97;;;1.98;;
77522;SDS011;66637;-29.628;-49.938;2023-05-16T10:57:15;4.90;;;2.10;;
77522;SDS011;66637;-29.628;-49.938;2023-05-16T10:59:50;3.83;;;2.10;;
77522;SDS011;66637;-29.628;-49.938;2023-05-16T11:02:31;4.13;;;1.88;;
77522;SDS011;66637;-29.628;-49.938;2023-05-16T11:05:11;4.18;;;2.08;;
77522;SDS011;66637;-29.628;-49.938;2023-05-16T11:07:47;3.83;;;1.98;;
77522;SDS011;66637;-29.628;-49.938;2023-05-16T11:10:33;5.53;;;1.65;;
77522;SDS011;66637;-29.628;-49.938;2023-05-16T11:13:06;2.83;;;1.67;;
77522;SDS011;66637;-29.628;-49.938;2023-05-16T11:15:37;3.30;;;1.80;;
77522;SDS011;66637;-29.628;-49.938;2023-05-16T11:18:08;3.67;;;1.80;;
77522;SDS011;66637;-29.628;-49.938;2023-05-16T11:20:43;4.47;;;1.80;;
77522;SDS011;66637;-29.628;-49.938;2023-05-16T11:23:20;4.40;;;2.08;;
77522;SDS011;66637;-29.628;-49.938;2023-05-16T11:25:54;4.38;;;2.05;;
77522;SDS011;66637;-29.628;-49.938;2023-05-16T11:28:27;4.10;;;2.05;;
77522;SDS011;66637;-29.628;-49.938;2023-05-16T11:30:58;4.38;;;2.40;;
77522;SDS011;66637;-29.628;-49.938;2023-05-16T11:33:31;4.07;;;3.00;;
77522;SDS011;66637;-29.628;-49.938;2023-05-16T11:36:04;6.40;;;3.05;;
77522;SDS011;66637;-29.628;-49.938;2023-05-16T11:38:43;3.50;;;2.60;;
77522;SDS011;66637;-29.628;-49.938;2023-05-16T11:41:13;4.28;;;2.33;;
77522;SDS011;66637;-29.628;-49.938;2023-05-16T11:43:46;4.80;;;1.90;;
77522;SDS011;66637;-29.628;-49.938;2023-05-16T11:46:17;3.42;;;1.85;;
77522;SDS011;66637;-29.628;-49.938;2023-05-16T11:48:49;4.15;;;1.65;;
77522;SDS011;66637;-29.628;-49.938;2023-05-16T11:51:20;4.53;;;1.70;;
77522;SDS011;66637;-29.628;-49.938;2023-05-16T11:53:51;8.10;;;1.90;;
77522;SDS011;66637;-29.628;-49.938;2023-05-16T11:56:23;3.35;;;1.48;;
77522;SDS011;66637;-29.628;-49.938;2023-05-16T11:58:54;5.00;;;1.50;;
77522;SDS011;66637;-29.628;-49.938;2023-05-16T12:01:24;4.35;;;1.65;;
77522;SDS011;66637;-29.628;-49.938;2023-05-16T12:04:00;2.60;;;1.70;;
77522;SDS011;66637;-29.628;-49.938;2023-05-16T12:06:31;3.90;;;1.58;;
77522;SDS011;66637;-29.628;-49.938;2023-05-16T12:09:03;5.50;;;1.98;;
77522;SDS011;66637;-29.628;-49.938;2023-05-16T12:11:40;3.58;;;1.45;;
77522;SDS011;66637;-29.628;-49.938;2023-05-16T12:14:14;5.30;;;1.30;;
77522;SDS011;66637;-29.628;-49.938;2023-05-16T12:16:46;5.30;;;1.60;;
77522;SDS011;66637;-29.628;-49.938;2023-05-16T12:19:17;4.88;;;1.42;;
77522;SDS011;66637;-29.628;-49.938;2023-05-16T12:21:52;3.80;;;1.50;;
77522;SDS011;66637;-29.628;-49.938;2023-05-16T12:24:28;5.47;;;1.73;;
77522;SDS011;66637;-29.628;-49.938;2023-05-16T12:27:01;4.78;;;1.65;;
77522;SDS011;66637;-29.628;-49.938;2023-05-16T12:29:31;6.93;;;1.50;;
77522;SDS011;66637;-29.628;-49.938;2023-05-16T12:32:01;5.88;;;1.33;;
77522;SDS011;66637;-29.628;-49.938;2023-05-16T12:34:32;5.93;;;1.10;;
77522;SDS011;66637;-29.628;-49.938;2023-05-16T12:37:03;8.15;;;1.27;;
77522;SDS011;66637;-29.628;-49.938;2023-05-16T12:39:37;3.60;;;1.02;;
77522;SDS011;66637;-29.628;-49.938;2023-05-16T12:42:08;6.55;;;1.13;;
77522;SDS011;66637;-29.628;-49.938;2023-05-16T12:44:46;8.00;;;1.40;;
77522;SDS011;66637;-29.628;-49.938;2023-05-16T12:47:18;9.43;;;1.30;;
77522;SDS011;66637;-29.628;-49.938;2023-05-16T12:49:52;7.13;;;1.15;;
77522;SDS011;66637;-29.628;-49.938;2023-05-16T12:52:27;5.78;;;1.20;;
77522;SDS011;66637;-29.628;-49.938;2023-05-16T12:54:59;8.27;;;1.00;;
77522;SDS011;66637;-29.628;-49.938;2023-05-16T12:57:30;4.88;;;0.98;;
77522;SDS011;66637;-29.628;-49.938;2023-05-16T13:00:03;8.95;;;1.15;;
77522;SDS011;66637;-29.628;-49.938;2023-05-16T13:02:35;7.63;;;1.23;;
77522;SDS011;66637;-29.628;-49.938;2023-05-16T13:05:07;7.65;;;1.25;;
77522;SDS011;66637;-29.628;-49.938;2023-05-16T13:07:41;6.97;;;1.38;;
77522;SDS011;66637;-29.628;-49.938;2023-05-16T13:10:12;8.05;;;1.10;;
77522;SDS011;66637;-29.628;-49.938;2023-05-16T13:12:43;11.88;;;1.10;;
77522;SDS011;66637;-29.628;-49.938;2023-05-16T13:15:13;9.45;;;1.30;;
77522;SDS011;66637;-29.628;-49.938;2023-05-16T13:17:45;8.88;;;1.30;;
77522;SDS011;66637;-29.628;-49.938;2023-05-16T13:20:16;7.53;;;1.20;;
77522;SDS011;66637;-29.628;-49.938;2023-05-16T13:22:47;7.18;;;1.27;;
77522;SDS011;66637;-29.628;-49.938;2023-05-16T13:25:19;7.65;;;1.25;;
77522;SDS011;66637;-29.628;-49.938;2023-05-16T13:27:50;9.45;;;1.40;;
77522;SDS011;66637;-29.628;-49.938;2023-05-16T13:30:20;7.15;;;1.17;;
77522;SDS011;66637;-29.628;-49.938;2023-05-16T13:32:50;11.88;;;1.40;;
77522;SDS011;66637;-29.628;-49.938;2023-05-16T13:35:21;7.47;;;1.45;;
77522;SDS011;66637;-29.628;-49.938;2023-05-16T13:37:51;10.60;;;1.85;;
77522;SDS011;66637;-29.628;-49.938;2023-05-16T13:40:25;7.28;;;1.05;;
77522;SDS011;66637;-29.628;-49.938;2023-05-16T13:42:58;6.72;;;1.33;;
77522;SDS011;66637;-29.628;-49.938;2023-05-16T13:45:30;9.77;;;1.38;;
77522;SDS011;66637;-29.628;-49.938;2023-05-16T13:48:01;11.05;;;1.52;;
77522;SDS011;66637;-29.628;-49.938;2023-05-16T13:50:36;10.52;;;1.48;;
77522;SDS011;66637;-29.628;-49.938;2023-05-16T13:53:11;5.72;;;1.45;;
77522;SDS011;66637;-29.628;-49.938;2023-05-16T13:55:42;10.10;;;1.15;;
77522;SDS011;66637;-29.628;-49.938;2023-05-16T13:58:13;7.32;;;0.90;;
77522;SDS011;66637;-29.628;-49.938;2023-05-16T14:00:46;8.90;;;1.15;;
77522;SDS011;66637;-29.628;-49.938;2023-05-16T14:03:18;8.50;;;1.25;;
77522;SDS011;66637;-29.628;-49.938;2023-05-16T14:05:51;7.55;;;1.13;;
77522;SDS011;66637;-29.628;-49.938;2023-05-16T14:08:23;8.40;;;1.40;;
77522;SDS011;66637;-29.628;-49.938;2023-05-16T14:10:53;7.28;;;1.10;;
77522;SDS011;66637;-29.628;-49.938;2023-05-16T14:13:28;7.28;;;1.25;;
77522;SDS011;66637;-29.628;-49.938;2023-05-16T14:16:01;7.47;;;1.50;;
77522;SDS011;66637;-29.628;-49.938;2023-05-16T14:18:34;9.55;;;1.30;;
77522;SDS011;66637;-29.628;-49.938;2023-05-16T14:21:05;10.15;;;1.50;;
77522;SDS011;66637;-29.628;-49.938;2023-05-16T14:23:36;9.90;;;1.33;;
77522;SDS011;66637;-29.628;-49.938;2023-05-16T14:26:11;5.72;;;1.17;;
77522;SDS011;66637;-29.628;-49.938;2023-05-16T14:28:41;8.30;;;1.50;;
77522;SDS011;66637;-29.628;-49.938;2023-05-16T14:31:12;7.57;;;1.17;;
77522;SDS011;66637;-29.628;-49.938;2023-05-16T14:33:46;37.30;;;4.70;;
77522;SDS011;66637;-29.628;-49.938;2023-05-16T14:36:19;30.08;;;3.28;;
77522;SDS011;66637;-29.628;-49.938;2023-05-16T14:38:53;28.48;;;3.78;;
77522;SDS011;66637;-29.628;-49.938;2023-05-16T14:41:24;29.98;;;3.63;;
77522;SDS011;66637;-29.628;-49.938;2023-05-16T14:43:54;26.10;;;3.10;;
77522;SDS011;66637;-29.628;-49.938;2023-05-16T14:46:25;38.55;;;4.75;;
77522;SDS011;66637;-29.628;-49.938;2023-05-16T14:48:55;24.95;;;4.40;;
77522;SDS011;66637;-29.628;-49.938;2023-05-16T14:51:25;37.03;;;3.67;;
77522;SDS011;66637;-29.628;-49.938;2023-05-16T14:53:56;21.02;;;2.92;;
77522;SDS011;66637;-29.628;-49.938;2023-05-16T14:56:26;18.83;;;2.97;;
77522;SDS011;66637;-29.628;-49.938;2023-05-16T14:58:57;33.97;;;3.47;;
77522;SDS011;66637;-29.628;-49.938;2023-05-16T15:01:29;25.83;;;3.28;;
77522;SDS011;66637;-29.628;-49.938;2023-05-16T15:03:59;26.25;;;3.78;;
77522;SDS011;66637;-29.628;-49.938;2023-05-16T15:06:31;42.70;;;5.05;;
77522;SDS011;66637;-29.628;-49.938;2023-05-16T15:09:03;15.30;;;2.03;;
77522;SDS011;66637;-29.628;-49.938;2023-05-16T15:11:33;29.58;;;4.05;;
77522;SDS011;66637;-29.628;-49.938;2023-05-16T15:14:09;25.50;;;3.65;;
77522;SDS011;66637;-29.628;-49.938;2023-05-16T15:16:40;18.73;;;2.30;;
77522;SDS011;66637;-29.628;-49.938;2023-05-16T15:19:12;21.40;;;3.08;;
77522;SDS011;66637;-29.628;-49.938;2023-05-16T15:21:42;23.17;;;3.22;;
77522;SDS011;66637;-29.628;-49.938;2023-05-16T15:24:16;23.30;;;2.85;;
77522;SDS011;66637;-29.628;-49.938;2023-05-16T15:26:46;27.10;;;3.30;;
77522;SDS011;66637;-29.628;-49.938;2023-05-16T15:29:19;22.67;;;2.72;;
77522;SDS011;66637;-29.628;-49.938;2023-05-16T15:31:49;29.65;;;3.50;;
77522;SDS011;66637;-29.628;-49.938;2023-05-16T15:34:20;19.92;;;3.30;;
77522;SDS011;66637;-29.628;-49.938;2023-05-16T15:36:52;33.35;;;3.55;;
77522;SDS011;66637;-29.628;-49.938;2023-05-16T15:39:23;23.55;;;3.53;;
77522;SDS011;66637;-29.628;-49.938;2023-05-16T15:41:58;35.90;;;4.38;;
77522;SDS011;66637;-29.628;-49.938;2023-05-16T15:44:37;32.50;;;4.20;;
77522;SDS011;66637;-29.628;-49.938;2023-05-16T15:47:09;28.98;;;4.78;;
77522;SDS011;66637;-29.628;-49.938;2023-05-16T15:49:42;33.60;;;3.50;;
77522;SDS011;66637;-29.628;-49.938;2023-05-16T15:52:12;26.63;;;3.67;;
77522;SDS011;66637;-29.628;-49.938;2023-05-16T15:54:44;31.02;;;4.07;;
77522;SDS011;66637;-29.628;-49.938;2023-05-16T15:57:14;26.35;;;3.13;;
77522;SDS011;66637;-29.628;-49.938;2023-05-16T15:59:46;42.03;;;5.13;;
77522;SDS011;66637;-29.628;-49.938;2023-05-16T16:02:17;48.95;;;6.63;;
77522;SDS011;66637;-29.628;-49.938;2023-05-16T16:04:47;20.27;;;2.97;;
77522;SDS011;66637;-29.628;-49.938;2023-05-16T16:07:23;30.65;;;4.10;;
77522;SDS011;66637;-29.628;-49.938;2023-05-16T16:09:55;41.10;;;5.93;;
77522;SDS011;66637;-29.628;-49.938;2023-05-16T16:12:33;45.10;;;5.53;;
77522;SDS011;66637;-29.628;-49.938;2023-05-16T16:15:07;30.05;;;4.03;;
77522;SDS011;66637;-29.628;-49.938;2023-05-16T16:17:40;30.83;;;3.72;;
77522;SDS011;66637;-29.628;-49.938;2023-05-16T16:20:11;25.98;;;3.28;;
77522;SDS011;66637;-29.628;-49.938;2023-05-16T16:22:44;45.30;;;5.22;;
77522;SDS011;66637;-29.628;-49.938;2023-05-16T16:25:16;26.33;;;3.22;;
77522;SDS011;66637;-29.628;-49.938;2023-05-16T16:27:47;35.58;;;3.85;;
77522;SDS011;66637;-29.628;-49.938;2023-05-16T16:30:18;22.00;;;2.83;;